sensor_id;sensor_type;location;lat;lon;timestamp;pressure;altitude;pressure_sealevel;temperature;humidity
74915;BME280;63475;45.140;-75.616;2023-07-31T00:00:39;100254.75;;;22.20;56.89
74915;BME280;63475;45.140;-75.616;2023-07-31T00:02:42;100254.88;;;22.12;56.93
74915;BME280;63475;45.140;-75.616;2023-07-31T00:04:44;100259.38;;;22.05;57.32
74915;BME280;63475;45.140;-75.616;2023-07-31T00:06:47;100255.53;;;21.99;57.90
74915;BME280;63475;45.140;-75.616;2023-07-31T00:08:50;100257.81;;;21.96;57.90
74915;BME280;63475;45.140;-75.616;2023-07-31T00:10:53;100256.69;;;21.90;57.95
74915;BME280;63475;45.140;-75.616;2023-07-31T00:12:55;100265.59;;;21.84;57.97
74915;BME280;63475;45.140;-75.616;2023-07-31T00:14:58;100257.56;;;21.76;58.36
74915;BME280;63475;45.140;-75.616;2023-07-31T00:17:01;100263.56;;;21.72;58.53
74915;BME280;63475;45.140;-75.616;2023-07-31T00:19:03;100264.97;;;21.67;58.62
74915;BME280;63475;45.140;-75.616;2023-07-31T00:21:06;100258.41;;;21.62;59.08
74915;BME280;63475;45.140;-75.616;2023-07-31T00:23:08;100258.31;;;21.55;59.10
74915;BME280;63475;45.140;-75.616;2023-07-31T00:25:11;100251.97;;;21.48;59.46
74915;BME280;63475;45.140;-75.616;2023-07-31T00:27:14;100251.69;;;21.43;59.39
74915;BME280;63475;45.140;-75.616;2023-07-31T00:29:16;100255.81;;;21.39;59.48
74915;BME280;63475;45.140;-75.616;2023-07-31T00:31:19;100250.28;;;21.32;59.88
74915;BME280;63475;45.140;-75.616;2023-07-31T00:33:21;100249.00;;;21.28;60.00
74915;BME280;63475;45.140;-75.616;2023-07-31T00:35:24;100246.59;;;21.25;60.33
74915;BME280;63475;45.140;-75.616;2023-07-31T00:37:26;100245.19;;;21.15;60.47
74915;BME280;63475;45.140;-75.616;2023-07-31T00:39:30;100248.44;;;21.10;60.76
74915;BME280;63475;45.140;-75.616;2023-07-31T00:41:33;100243.59;;;21.06;60.46
74915;BME280;63475;45.140;-75.616;2023-07-31T00:43:36;100243.69;;;20.97;60.54
74915;BME280;63475;45.140;-75.616;2023-07-31T00:45:38;100248.81;;;20.92;60.30
74915;BME280;63475;45.140;-75.616;2023-07-31T00:47:41;100248.91;;;20.84;60.37
74915;BME280;63475;45.140;-75.616;2023-07-31T00:49:44;100254.03;;;20.79;60.23
74915;BME280;63475;45.140;-75.616;2023-07-31T00:51:46;100257.94;;;20.77;60.17
74915;BME280;63475;45.140;-75.616;2023-07-31T00:53:49;100253.06;;;20.72;60.08
74915;BME280;63475;45.140;-75.616;2023-07-31T00:55:52;100256.13;;;20.69;59.99
74915;BME280;63475;45.140;-75.616;2023-07-31T00:57:55;100264.44;;;20.67;59.95
74915;BME280;63475;45.140;-75.616;2023-07-31T00:59:58;100262.31;;;20.63;59.53
74915;BME280;63475;45.140;-75.616;2023-07-31T01:02:01;100264.38;;;20.61;59.89
74915;BME280;63475;45.140;-75.616;2023-07-31T01:04:05;100273.03;;;20.56;59.69
74915;BME280;63475;45.140;-75.616;2023-07-31T01:10:48;100284.06;;;20.47;59.92
74915;BME280;63475;45.140;-75.616;2023-07-31T01:12:53;100287.53;;;20.41;60.06
74915;BME280;63475;45.140;-75.616;2023-07-31T01:15:09;100291.78;;;20.35;59.89
74915;BME280;63475;45.140;-75.616;2023-07-31T01:17:16;100287.94;;;20.29;60.81
74915;BME280;63475;45.140;-75.616;2023-07-31T01:19:22;100287.44;;;20.26;60.36
74915;BME280;63475;45.140;-75.616;2023-07-31T01:26:13;100290.91;;;20.12;59.95
74915;BME280;63475;45.140;-75.616;2023-07-31T01:28:27;100288.75;;;20.07;60.17
74915;BME280;63475;45.140;-75.616;2023-07-31T01:30:38;100295.34;;;20.05;60.89
74915;BME280;63475;45.140;-75.616;2023-07-31T01:32:47;100298.59;;;20.00;60.74
74915;BME280;63475;45.140;-75.616;2023-07-31T01:34:51;100283.91;;;19.94;60.96
74915;BME280;63475;45.140;-75.616;2023-07-31T01:36:55;100284.94;;;19.93;61.70
74915;BME280;63475;45.140;-75.616;2023-07-31T01:39:02;100288.84;;;19.91;61.67
74915;BME280;63475;45.140;-75.616;2023-07-31T01:41:04;100294.94;;;19.85;62.29
74915;BME280;63475;45.140;-75.616;2023-07-31T01:43:07;100284.47;;;19.82;62.82
74915;BME280;63475;45.140;-75.616;2023-07-31T01:45:10;100286.69;;;19.78;63.03
74915;BME280;63475;45.140;-75.616;2023-07-31T01:47:12;100280.97;;;19.73;63.59
74915;BME280;63475;45.140;-75.616;2023-07-31T01:49:15;100281.47;;;19.69;63.55
74915;BME280;63475;45.140;-75.616;2023-07-31T01:51:17;100275.06;;;19.61;64.32
74915;BME280;63475;45.140;-75.616;2023-07-31T01:53:20;100266.44;;;19.58;63.92
74915;BME280;63475;45.140;-75.616;2023-07-31T01:55:22;100270.69;;;19.52;64.35
74915;BME280;63475;45.140;-75.616;2023-07-31T01:57:25;100271.22;;;19.48;65.37
74915;BME280;63475;45.140;-75.616;2023-07-31T01:59:28;100267.34;;;19.42;65.07
74915;BME280;63475;45.140;-75.616;2023-07-31T02:01:31;100271.41;;;19.38;65.83
74915;BME280;63475;45.140;-75.616;2023-07-31T02:03:36;100274.47;;;19.35;65.39
74915;BME280;63475;45.140;-75.616;2023-07-31T02:05:47;100272.94;;;19.32;65.10
74915;BME280;63475;45.140;-75.616;2023-07-31T02:07:50;100280.38;;;19.30;65.45
74915;BME280;63475;45.140;-75.616;2023-07-31T02:09:52;100276.19;;;19.28;65.34
74915;BME280;63475;45.140;-75.616;2023-07-31T02:11:56;100270.13;;;19.26;65.45
74915;BME280;63475;45.140;-75.616;2023-07-31T02:13:58;100275.19;;;19.21;65.75
74915;BME280;63475;45.140;-75.616;2023-07-31T02:16:01;100266.75;;;19.16;65.68
74915;BME280;63475;45.140;-75.616;2023-07-31T02:18:03;100259.16;;;19.11;65.98
74915;BME280;63475;45.140;-75.616;2023-07-31T02:20:06;100270.28;;;19.08;66.08
74915;BME280;63475;45.140;-75.616;2023-07-31T02:22:09;100268.97;;;19.04;66.16
74915;BME280;63475;45.140;-75.616;2023-07-31T02:24:12;100263.06;;;19.01;66.43
74915;BME280;63475;45.140;-75.616;2023-07-31T02:26:14;100265.09;;;18.98;66.69
74915;BME280;63475;45.140;-75.616;2023-07-31T02:28:17;100256.66;;;18.93;66.33
74915;BME280;63475;45.140;-75.616;2023-07-31T02:30:20;100257.00;;;18.90;66.48
74915;BME280;63475;45.140;-75.616;2023-07-31T02:32:22;100256.31;;;18.88;66.74
74915;BME280;63475;45.140;-75.616;2023-07-31T02:34:25;100256.63;;;18.85;66.84
74915;BME280;63475;45.140;-75.616;2023-07-31T02:36:27;100264.06;;;18.83;67.19
74915;BME280;63475;45.140;-75.616;2023-07-31T02:38:30;100264.41;;;18.80;67.16
74915;BME280;63475;45.140;-75.616;2023-07-31T02:40:32;100260.19;;;18.78;67.50
74915;BME280;63475;45.140;-75.616;2023-07-31T02:42:38;100255.97;;;18.75;67.74
74915;BME280;63475;45.140;-75.616;2023-07-31T02:44:40;100250.91;;;18.72;67.82
74915;BME280;63475;45.140;-75.616;2023-07-31T02:46:43;100264.56;;;18.71;67.83
74915;BME280;63475;45.140;-75.616;2023-07-31T02:48:45;100264.75;;;18.69;67.92
74915;BME280;63475;45.140;-75.616;2023-07-31T02:50:51;100257.31;;;18.63;68.03
74915;BME280;63475;45.140;-75.616;2023-07-31T02:52:53;100273.69;;;18.61;67.95
74915;BME280;63475;45.140;-75.616;2023-07-31T02:54:56;100270.34;;;18.59;68.27
74915;BME280;63475;45.140;-75.616;2023-07-31T02:56:58;100275.06;;;18.57;68.97
74915;BME280;63475;45.140;-75.616;2023-07-31T02:59:01;100273.88;;;18.52;68.99
74915;BME280;63475;45.140;-75.616;2023-07-31T03:01:03;100274.03;;;18.50;69.04
74915;BME280;63475;45.140;-75.616;2023-07-31T03:03:06;100278.75;;;18.48;69.00
74915;BME280;63475;45.140;-75.616;2023-07-31T03:05:09;100273.53;;;18.47;69.19
74915;BME280;63475;45.140;-75.616;2023-07-31T03:07:11;100277.22;;;18.46;69.31
74915;BME280;63475;45.140;-75.616;2023-07-31T03:09:14;100286.34;;;18.45;69.19
74915;BME280;63475;45.140;-75.616;2023-07-31T03:11:17;100288.69;;;18.40;69.18
74915;BME280;63475;45.140;-75.616;2023-07-31T03:13:19;100315.88;;;18.38;69.49
74915;BME280;63475;45.140;-75.616;2023-07-31T03:15:22;100344.41;;;18.41;70.39
74915;BME280;63475;45.140;-75.616;2023-07-31T03:17:24;100334.78;;;18.38;70.47
74915;BME280;63475;45.140;-75.616;2023-07-31T03:19:30;100321.78;;;18.34;70.41
74915;BME280;63475;45.140;-75.616;2023-07-31T03:21:33;100320.44;;;18.29;69.58
74915;BME280;63475;45.140;-75.616;2023-07-31T03:23:36;100324.63;;;18.24;69.06
74915;BME280;63475;45.140;-75.616;2023-07-31T03:25:41;100333.22;;;18.19;68.58
74915;BME280;63475;45.140;-75.616;2023-07-31T03:27:44;100331.03;;;18.15;68.37
74915;BME280;63475;45.140;-75.616;2023-07-31T03:29:46;100345.88;;;18.11;67.96
74915;BME280;63475;45.140;-75.616;2023-07-31T03:31:49;100351.06;;;18.04;67.96
74915;BME280;63475;45.140;-75.616;2023-07-31T03:33:52;100359.78;;;17.98;68.80
74915;BME280;63475;45.140;-75.616;2023-07-31T03:35:54;100350.50;;;17.92;68.89
74915;BME280;63475;45.140;-75.616;2023-07-31T03:37:57;100357.38;;;17.87;68.82
74915;BME280;63475;45.140;-75.616;2023-07-31T03:39:59;100359.88;;;17.80;70.16
74915;BME280;63475;45.140;-75.616;2023-07-31T03:42:02;100342.13;;;17.70;70.69
74915;BME280;63475;45.140;-75.616;2023-07-31T03:44:05;100328.59;;;17.61;71.47
74915;BME280;63475;45.140;-75.616;2023-07-31T03:46:07;100323.50;;;17.58;72.73
74915;BME280;63475;45.140;-75.616;2023-07-31T03:48:10;100307.97;;;17.52;73.14
74915;BME280;63475;45.140;-75.616;2023-07-31T03:50:12;100316.38;;;17.49;73.74
74915;BME280;63475;45.140;-75.616;2023-07-31T03:52:15;100315.19;;;17.44;73.74
74915;BME280;63475;45.140;-75.616;2023-07-31T03:54:18;100325.13;;;17.43;73.74
74915;BME280;63475;45.140;-75.616;2023-07-31T03:56:21;100323.75;;;17.39;73.77
74915;BME280;63475;45.140;-75.616;2023-07-31T03:58:23;100324.75;;;17.38;73.81
74915;BME280;63475;45.140;-75.616;2023-07-31T04:00:26;100333.84;;;17.37;74.19
74915;BME280;63475;45.140;-75.616;2023-07-31T04:02:29;100336.00;;;17.34;74.29
74915;BME280;63475;45.140;-75.616;2023-07-31T04:04:32;100330.06;;;17.30;74.21
74915;BME280;63475;45.140;-75.616;2023-07-31T04:06:37;100335.47;;;17.30;74.40
74915;BME280;63475;45.140;-75.616;2023-07-31T04:08:40;100331.25;;;17.27;74.94
74915;BME280;63475;45.140;-75.616;2023-07-31T04:10:42;100328.88;;;17.24;74.95
74915;BME280;63475;45.140;-75.616;2023-07-31T04:12:45;100328.19;;;17.22;75.10
74915;BME280;63475;45.140;-75.616;2023-07-31T04:14:48;100320.59;;;17.18;75.14
74915;BME280;63475;45.140;-75.616;2023-07-31T04:16:50;100324.28;;;17.17;75.19
74915;BME280;63475;45.140;-75.616;2023-07-31T04:18:54;100327.28;;;17.14;75.43
74915;BME280;63475;45.140;-75.616;2023-07-31T04:20:57;100330.44;;;17.09;75.19
74915;BME280;63475;45.140;-75.616;2023-07-31T04:23:03;100328.88;;;17.07;74.92
74915;BME280;63475;45.140;-75.616;2023-07-31T04:25:06;100322.94;;;17.03;74.76
74915;BME280;63475;45.140;-75.616;2023-07-31T04:27:09;100329.53;;;17.01;75.07
74915;BME280;63475;45.140;-75.616;2023-07-31T04:29:11;100322.75;;;16.97;75.05
74915;BME280;63475;45.140;-75.616;2023-07-31T04:31:14;100329.31;;;16.94;75.07
74915;BME280;63475;45.140;-75.616;2023-07-31T04:33:16;100322.53;;;16.90;75.22
74915;BME280;63475;45.140;-75.616;2023-07-31T04:35:19;100322.00;;;16.86;75.69
74915;BME280;63475;45.140;-75.616;2023-07-31T04:37:21;100319.59;;;16.83;75.85
74915;BME280;63475;45.140;-75.616;2023-07-31T04:39:24;100312.16;;;16.77;75.69
74915;BME280;63475;45.140;-75.616;2023-07-31T04:41:30;100325.94;;;16.74;75.86
74915;BME280;63475;45.140;-75.616;2023-07-31T04:43:39;100323.84;;;16.68;75.88
74915;BME280;63475;45.140;-75.616;2023-07-31T04:45:48;100319.09;;;16.62;76.26
74915;BME280;63475;45.140;-75.616;2023-07-31T04:47:50;100317.69;;;16.58;76.31
74915;BME280;63475;45.140;-75.616;2023-07-31T04:49:56;100325.41;;;16.53;76.32
74915;BME280;63475;45.140;-75.616;2023-07-31T04:51:58;100319.78;;;16.46;76.49
74915;BME280;63475;45.140;-75.616;2023-07-31T04:54:01;100318.53;;;16.41;76.55
74915;BME280;63475;45.140;-75.616;2023-07-31T04:56:04;100320.69;;;16.37;76.79
74915;BME280;63475;45.140;-75.616;2023-07-31T04:58:06;100319.50;;;16.32;76.87
74915;BME280;63475;45.140;-75.616;2023-07-31T05:00:09;100324.47;;;16.26;76.61
74915;BME280;63475;45.140;-75.616;2023-07-31T05:02:12;100317.69;;;16.22;77.07
74915;BME280;63475;45.140;-75.616;2023-07-31T05:04:15;100312.63;;;16.19;77.28
74915;BME280;63475;45.140;-75.616;2023-07-31T05:06:18;100317.44;;;16.16;77.47
74915;BME280;63475;45.140;-75.616;2023-07-31T05:08:22;100316.06;;;16.12;77.51
74915;BME280;63475;45.140;-75.616;2023-07-31T05:10:25;100310.97;;;16.09;77.50
74915;BME280;63475;45.140;-75.616;2023-07-31T05:12:27;100302.50;;;16.04;77.85
74915;BME280;63475;45.140;-75.616;2023-07-31T05:14:30;100309.16;;;16.00;78.31
74915;BME280;63475;45.140;-75.616;2023-07-31T05:16:32;100307.06;;;15.93;77.61
74915;BME280;63475;45.140;-75.616;2023-07-31T05:18:35;100308.41;;;15.89;77.84
74915;BME280;63475;45.140;-75.616;2023-07-31T05:20:37;100301.47;;;15.87;77.90
74915;BME280;63475;45.140;-75.616;2023-07-31T05:22:40;100298.94;;;15.85;78.28
74915;BME280;63475;45.140;-75.616;2023-07-31T05:24:43;100291.00;;;15.84;78.53
74915;BME280;63475;45.140;-75.616;2023-07-31T05:26:45;100295.97;;;15.79;78.43
74915;BME280;63475;45.140;-75.616;2023-07-31T05:28:48;100292.75;;;15.75;78.75
74915;BME280;63475;45.140;-75.616;2023-07-31T05:30:51;100301.94;;;15.73;78.60
74915;BME280;63475;45.140;-75.616;2023-07-31T05:32:53;100297.88;;;15.69;78.51
74915;BME280;63475;45.140;-75.616;2023-07-31T05:34:56;100293.81;;;15.65;78.93
74915;BME280;63475;45.140;-75.616;2023-07-31T05:36:58;100293.94;;;15.63;79.06
74915;BME280;63475;45.140;-75.616;2023-07-31T05:39:01;100295.09;;;15.61;79.32
74915;BME280;63475;45.140;-75.616;2023-07-31T05:41:08;100292.41;;;15.61;79.47
74915;BME280;63475;45.140;-75.616;2023-07-31T05:43:11;100288.88;;;15.60;79.60
74915;BME280;63475;45.140;-75.616;2023-07-31T05:45:14;100284.63;;;15.57;79.30
74915;BME280;63475;45.140;-75.616;2023-07-31T05:47:16;100292.00;;;15.55;79.64
74915;BME280;63475;45.140;-75.616;2023-07-31T05:49:19;100290.00;;;15.57;79.51
74915;BME280;63475;45.140;-75.616;2023-07-31T05:51:21;100281.94;;;15.57;79.65
74915;BME280;63475;45.140;-75.616;2023-07-31T05:53:24;100278.69;;;15.54;79.44
74915;BME280;63475;45.140;-75.616;2023-07-31T05:55:26;100283.94;;;15.55;79.92
74915;BME280;63475;45.140;-75.616;2023-07-31T05:57:29;100275.88;;;15.55;79.62
74915;BME280;63475;45.140;-75.616;2023-07-31T05:59:31;100278.25;;;15.58;79.33
74915;BME280;63475;45.140;-75.616;2023-07-31T06:01:35;100277.56;;;15.56;79.59
74915;BME280;63475;45.140;-75.616;2023-07-31T06:03:38;100274.88;;;15.56;79.64
74915;BME280;63475;45.140;-75.616;2023-07-31T06:05:41;100272.47;;;15.53;79.58
74915;BME280;63475;45.140;-75.616;2023-07-31T06:07:43;100266.09;;;15.54;79.72
74915;BME280;63475;45.140;-75.616;2023-07-31T06:09:46;100260.19;;;15.51;79.89
74915;BME280;63475;45.140;-75.616;2023-07-31T06:11:49;100263.72;;;15.51;80.06
74915;BME280;63475;45.140;-75.616;2023-07-31T06:13:51;100277.84;;;15.53;80.27
74915;BME280;63475;45.140;-75.616;2023-07-31T06:15:54;100281.53;;;15.52;80.06
74915;BME280;63475;45.140;-75.616;2023-07-31T06:18:00;100285.22;;;15.51;80.20
74915;BME280;63475;45.140;-75.616;2023-07-31T06:20:06;100282.97;;;15.47;80.11
74915;BME280;63475;45.140;-75.616;2023-07-31T06:22:09;100287.63;;;15.54;80.07
74915;BME280;63475;45.140;-75.616;2023-07-31T06:24:11;100280.53;;;15.53;79.82
74915;BME280;63475;45.140;-75.616;2023-07-31T06:26:15;100273.31;;;15.54;79.76
74915;BME280;63475;45.140;-75.616;2023-07-31T06:28:18;100284.78;;;15.56;79.82
74915;BME280;63475;45.140;-75.616;2023-07-31T06:30:20;100283.22;;;15.53;80.10
74915;BME280;63475;45.140;-75.616;2023-07-31T06:32:23;100277.00;;;15.53;79.83
74915;BME280;63475;45.140;-75.616;2023-07-31T06:34:26;100277.16;;;15.51;79.83
74915;BME280;63475;45.140;-75.616;2023-07-31T06:36:28;100271.91;;;15.50;80.00
74915;BME280;63475;45.140;-75.616;2023-07-31T06:38:31;100286.06;;;15.52;79.65
74915;BME280;63475;45.140;-75.616;2023-07-31T06:40:33;100279.84;;;15.51;79.71
74915;BME280;63475;45.140;-75.616;2023-07-31T06:42:36;100275.31;;;15.52;79.65
74915;BME280;63475;45.140;-75.616;2023-07-31T06:44:38;100281.69;;;15.51;79.69
74915;BME280;63475;45.140;-75.616;2023-07-31T06:46:42;100278.16;;;15.50;79.65
74915;BME280;63475;45.140;-75.616;2023-07-31T06:48:45;100277.84;;;15.53;80.08
74915;BME280;63475;45.140;-75.616;2023-07-31T06:50:47;100275.16;;;15.53;79.91
74915;BME280;63475;45.140;-75.616;2023-07-31T06:52:50;100268.09;;;15.52;79.84
74915;BME280;63475;45.140;-75.616;2023-07-31T06:55:16;100261.72;;;15.53;80.04
74915;BME280;63475;45.140;-75.616;2023-07-31T06:57:22;100262.88;;;15.51;80.14
74915;BME280;63475;45.140;-75.616;2023-07-31T06:59:24;100262.88;;;15.51;80.19
74915;BME280;63475;45.140;-75.616;2023-07-31T07:01:27;100268.09;;;15.52;80.44
74915;BME280;63475;45.140;-75.616;2023-07-31T07:03:32;100263.72;;;15.51;80.33
74915;BME280;63475;45.140;-75.616;2023-07-31T07:05:34;100264.41;;;15.53;80.26
74915;BME280;63475;45.140;-75.616;2023-07-31T07:07:37;100272.47;;;15.53;80.08
74915;BME280;63475;45.140;-75.616;2023-07-31T07:09:40;100270.78;;;15.52;80.62
74915;BME280;63475;45.140;-75.616;2023-07-31T07:11:42;100262.88;;;15.51;80.28
74915;BME280;63475;45.140;-75.616;2023-07-31T07:13:44;100275.31;;;15.52;79.92
74915;BME280;63475;45.140;-75.616;2023-07-31T07:15:51;100251.13;;;15.52;80.05
74915;BME280;63475;45.140;-75.616;2023-07-31T07:17:53;100262.88;;;15.51;79.72
74915;BME280;63475;45.140;-75.616;2023-07-31T07:19:56;100263.72;;;15.51;79.82
74915;BME280;63475;45.140;-75.616;2023-07-31T07:21:58;100258.34;;;15.51;79.54
74915;BME280;63475;45.140;-75.616;2023-07-31T07:24:04;100269.22;;;15.50;79.93
74915;BME280;63475;45.140;-75.616;2023-07-31T07:26:06;100258.63;;;15.48;80.02
74915;BME280;63475;45.140;-75.616;2023-07-31T07:28:09;100261.31;;;15.48;79.94
74915;BME280;63475;45.140;-75.616;2023-07-31T07:30:12;100263.31;;;15.46;79.92
74915;BME280;63475;45.140;-75.616;2023-07-31T07:32:16;100270.38;;;15.47;79.94
74915;BME280;63475;45.140;-75.616;2023-07-31T07:34:19;100264.00;;;15.48;80.00
74915;BME280;63475;45.140;-75.616;2023-07-31T07:36:22;100257.78;;;15.48;79.95
74915;BME280;63475;45.140;-75.616;2023-07-31T07:38:24;100256.94;;;15.47;80.13
74915;BME280;63475;45.140;-75.616;2023-07-31T07:40:27;100246.19;;;15.47;79.89
74915;BME280;63475;45.140;-75.616;2023-07-31T07:42:29;100248.16;;;15.45;79.87
74915;BME280;63475;45.140;-75.616;2023-07-31T07:44:32;100249.88;;;15.46;80.15
74915;BME280;63475;45.140;-75.616;2023-07-31T07:46:35;100250.00;;;15.45;80.03
74915;BME280;63475;45.140;-75.616;2023-07-31T07:48:37;100259.63;;;15.47;80.39
74915;BME280;63475;45.140;-75.616;2023-07-31T07:50:40;100256.22;;;15.45;80.36
74915;BME280;63475;45.140;-75.616;2023-07-31T07:52:42;100263.44;;;15.45;80.29
74915;BME280;63475;45.140;-75.616;2023-07-31T07:54:45;100263.63;;;15.43;80.19
74915;BME280;63475;45.140;-75.616;2023-07-31T07:56:47;100263.78;;;15.42;80.16
74915;BME280;63475;45.140;-75.616;2023-07-31T07:58:50;100273.69;;;15.41;80.26
74915;BME280;63475;45.140;-75.616;2023-07-31T08:00:53;100279.50;;;15.37;80.42
74915;BME280;63475;45.140;-75.616;2023-07-31T08:02:55;100273.56;;;15.33;81.09
74915;BME280;63475;45.140;-75.616;2023-07-31T08:05:00;100283.59;;;15.31;81.07
74915;BME280;63475;45.140;-75.616;2023-07-31T08:07:03;100279.50;;;15.27;81.48
74915;BME280;63475;45.140;-75.616;2023-07-31T08:09:06;100276.81;;;15.27;80.92
74915;BME280;63475;45.140;-75.616;2023-07-31T08:11:09;100279.66;;;15.25;81.39
74915;BME280;63475;45.140;-75.616;2023-07-31T08:13:12;100283.81;;;15.20;81.36
74915;BME280;63475;45.140;-75.616;2023-07-31T08:15:14;100281.13;;;15.20;81.15
74915;BME280;63475;45.140;-75.616;2023-07-31T08:17:17;100282.25;;;15.17;81.38
74915;BME280;63475;45.140;-75.616;2023-07-31T08:19:19;100289.31;;;15.18;81.28
74915;BME280;63475;45.140;-75.616;2023-07-31T08:21:22;100290.31;;;15.17;81.39
74915;BME280;63475;45.140;-75.616;2023-07-31T08:23:25;100283.25;;;15.16;81.68
74915;BME280;63475;45.140;-75.616;2023-07-31T08:25:27;100277.16;;;15.14;81.16
74915;BME280;63475;45.140;-75.616;2023-07-31T08:27:30;100277.28;;;15.13;81.46
74915;BME280;63475;45.140;-75.616;2023-07-31T08:29:32;100282.53;;;15.14;81.11
74915;BME280;63475;45.140;-75.616;2023-07-31T08:31:35;100274.47;;;15.14;81.08
74915;BME280;63475;45.140;-75.616;2023-07-31T08:33:38;100266.53;;;15.13;81.11
74915;BME280;63475;45.140;-75.616;2023-07-31T08:35:42;100273.50;;;15.15;81.22
74915;BME280;63475;45.140;-75.616;2023-07-31T08:37:44;100272.63;;;15.15;81.00
74915;BME280;63475;45.140;-75.616;2023-07-31T08:39:47;100278.00;;;15.15;81.25
74915;BME280;63475;45.140;-75.616;2023-07-31T08:41:49;100278.16;;;15.13;81.31
74915;BME280;63475;45.140;-75.616;2023-07-31T08:43:53;100279.13;;;15.12;81.43
74915;BME280;63475;45.140;-75.616;2023-07-31T08:45:57;100283.78;;;15.10;81.43
74915;BME280;63475;45.140;-75.616;2023-07-31T08:48:00;100283.22;;;15.07;81.83
74915;BME280;63475;45.140;-75.616;2023-07-31T08:50:04;100280.69;;;15.05;82.14
74915;BME280;63475;45.140;-75.616;2023-07-31T08:52:07;100273.63;;;15.04;81.88
74915;BME280;63475;45.140;-75.616;2023-07-31T08:54:09;100278.28;;;15.02;81.76
74915;BME280;63475;45.140;-75.616;2023-07-31T08:56:13;100285.34;;;15.03;82.30
74915;BME280;63475;45.140;-75.616;2023-07-31T08:58:17;100280.13;;;15.02;81.89
74915;BME280;63475;45.140;-75.616;2023-07-31T09:00:20;100278.75;;;14.98;82.32
74915;BME280;63475;45.140;-75.616;2023-07-31T09:02:31;100284.78;;;15.00;82.24
74915;BME280;63475;45.140;-75.616;2023-07-31T09:04:37;100286.22;;;14.94;82.54
74915;BME280;63475;45.140;-75.616;2023-07-31T09:06:41;100284.69;;;14.91;82.15
74915;BME280;63475;45.140;-75.616;2023-07-31T09:08:44;100299.09;;;14.90;82.62
74915;BME280;63475;45.140;-75.616;2023-07-31T09:10:48;100300.78;;;14.91;82.62
74915;BME280;63475;45.140;-75.616;2023-07-31T09:12:52;100299.38;;;14.87;82.28
74915;BME280;63475;45.140;-75.616;2023-07-31T09:14:56;100305.19;;;14.92;82.27
74915;BME280;63475;45.140;-75.616;2023-07-31T09:16:58;100299.94;;;14.91;82.54
74915;BME280;63475;45.140;-75.616;2023-07-31T09:19:02;100299.25;;;14.89;82.54
74915;BME280;63475;45.140;-75.616;2023-07-31T09:21:05;100308.16;;;14.89;82.31
74915;BME280;63475;45.140;-75.616;2023-07-31T09:23:13;100309.97;;;14.89;82.57
74915;BME280;63475;45.140;-75.616;2023-07-31T09:27:19;100314.78;;;14.85;82.29
74915;BME280;63475;45.140;-75.616;2023-07-31T09:29:22;100317.06;;;14.80;82.56
74915;BME280;63475;45.140;-75.616;2023-07-31T09:31:41;100325.25;;;14.79;82.69
74915;BME280;63475;45.140;-75.616;2023-07-31T09:33:56;100325.56;;;14.76;82.40
74915;BME280;63475;45.140;-75.616;2023-07-31T09:36:00;100328.38;;;14.74;82.68
74915;BME280;63475;45.140;-75.616;2023-07-31T09:38:08;100319.06;;;14.69;82.50
74915;BME280;63475;45.140;-75.616;2023-07-31T09:40:25;100322.31;;;14.72;82.23
74915;BME280;63475;45.140;-75.616;2023-07-31T09:42:28;100326.81;;;14.72;82.51
74915;BME280;63475;45.140;-75.616;2023-07-31T09:44:40;100324.69;;;14.66;82.41
74915;BME280;63475;45.140;-75.616;2023-07-31T09:46:43;100328.94;;;14.68;82.85
74915;BME280;63475;45.140;-75.616;2023-07-31T09:48:46;100330.91;;;14.66;82.68
74915;BME280;63475;45.140;-75.616;2023-07-31T09:50:49;100336.72;;;14.62;82.71
74915;BME280;63475;45.140;-75.616;2023-07-31T09:52:52;100343.50;;;14.66;82.63
74915;BME280;63475;45.140;-75.616;2023-07-31T09:54:54;100346.31;;;14.64;82.90
74915;BME280;63475;45.140;-75.616;2023-07-31T09:56:58;100345.34;;;14.65;82.73
74915;BME280;63475;45.140;-75.616;2023-07-31T09:59:04;100348.72;;;14.67;82.71
74915;BME280;63475;45.140;-75.616;2023-07-31T10:01:07;100348.88;;;14.66;82.82
74915;BME280;63475;45.140;-75.616;2023-07-31T10:03:11;100353.53;;;14.64;82.71
74915;BME280;63475;45.140;-75.616;2023-07-31T10:05:14;100349.84;;;14.65;82.90
74915;BME280;63475;45.140;-75.616;2023-07-31T10:07:22;100353.66;;;14.62;82.76
74915;BME280;63475;45.140;-75.616;2023-07-31T10:09:28;100358.31;;;14.60;83.12
74915;BME280;63475;45.140;-75.616;2023-07-31T10:11:45;100359.03;;;14.62;83.12
74915;BME280;63475;45.140;-75.616;2023-07-31T10:13:53;100367.22;;;14.61;83.12
74915;BME280;63475;45.140;-75.616;2023-07-31T10:15:59;100370.19;;;14.57;83.41
74915;BME280;63475;45.140;-75.616;2023-07-31T10:18:06;100372.16;;;14.55;83.51
74915;BME280;63475;45.140;-75.616;2023-07-31T10:20:08;100378.50;;;14.54;83.61
74915;BME280;63475;45.140;-75.616;2023-07-31T10:22:12;100377.84;;;14.52;83.54
74915;BME280;63475;45.140;-75.616;2023-07-31T10:24:15;100373.31;;;14.53;83.50
74915;BME280;63475;45.140;-75.616;2023-07-31T10:26:19;100379.53;;;14.53;83.05
74915;BME280;63475;45.140;-75.616;2023-07-31T10:28:22;100383.06;;;14.54;83.28
74915;BME280;63475;45.140;-75.616;2023-07-31T10:30:29;100379.66;;;14.52;83.33
74915;BME280;63475;45.140;-75.616;2023-07-31T10:32:33;100377.25;;;14.49;83.49
74915;BME280;63475;45.140;-75.616;2023-07-31T10:34:37;100385.16;;;14.50;83.31
74915;BME280;63475;45.140;-75.616;2023-07-31T10:36:41;100384.31;;;14.50;83.78
74915;BME280;63475;45.140;-75.616;2023-07-31T10:38:43;100384.59;;;14.47;83.71
74915;BME280;63475;45.140;-75.616;2023-07-31T10:40:46;100386.44;;;14.46;83.70